Time;durP1;ratioP1;P1;durP2;ratioP2;P2;SDS_P1;SDS_P2;PMS_P1;PMS_P2;Temp;Humidity;BMP_temperature;BMP_pressure;BME280_temperature;BME280_humidity;BME280_pressure;Samples;Min_cycle;Max_cycle;Signal;HPM_P1;HPM_P2
2021/04/10 00:01:03;;;;;;;13.07;11.10;;;10.10;1.00;;;;;;5085654;28;22732;-82
2021/04/10 00:03:30;;;;;;;11.85;10.65;;;10.10;1.00;;;;;;5080881;27;20248;-82
2021/04/10 00:05:56;;;;;;;12.63;11.32;;;10.20;1.00;;;;;;5085108;28;20224;-81
2021/04/10 00:08:24;;;;;;;13.93;12.27;;;10.20;1.00;;;;;;5072155;28;21400;-82
2021/04/10 00:10:54;;;;;;;12.00;10.80;;;10.10;1.00;;;;;;5087763;28;20233;-83
2021/04/10 00:13:21;;;;;;;11.30;10.20;;;10.10;1.00;;;;;;5070639;28;20270;-82
2021/04/10 00:15:47;;;;;;;11.75;10.52;;;10.00;1.00;;;;;;5086657;28;21192;-83
2021/04/10 00:18:13;;;;;;;11.15;10.05;;;9.90;1.00;;;;;;5068268;28;20283;-80
2021/04/10 00:20:40;;;;;;;11.38;10.27;;;9.80;1.00;;;;;;5084060;28;20378;-81
2021/04/10 00:23:10;;;;;;;12.00;10.80;;;9.70;1.00;;;;;;5073771;28;20217;-84
2021/04/10 00:25:36;;;;;;;15.52;10.15;;;9.70;1.00;;;;;;5083171;28;20227;-81
2021/04/10 00:28:04;;;;;;;11.27;10.15;;;9.60;1.00;;;;;;5072437;28;20300;-81
2021/04/10 00:30:34;;;;;;;10.60;9.48;;;9.50;1.00;;;;;;5086034;28;20305;-82
2021/04/10 00:33:00;;;;;;;11.52;10.27;;;9.50;1.00;;;;;;5078928;28;20221;-81
2021/04/10 00:35:28;;;;;;;12.60;9.82;;;9.50;1.00;;;;;;5084225;28;20332;-81
2021/04/10 00:37:57;;;;;;;14.30;10.80;;;9.50;1.00;;;;;;5075217;28;20228;-83
2021/04/10 00:40:24;;;;;;;12.60;10.43;;;9.50;1.00;;;;;;5088191;28;20217;-82
2021/04/10 00:42:53;;;;;;;12.10;10.80;;;9.50;1.00;;;;;;5071736;28;20235;-82
2021/04/10 00:45:25;;;;;;;11.85;10.75;;;9.40;1.00;;;;;;5086308;28;20247;-82
2021/04/10 00:47:51;;;;;;;11.57;10.35;;;9.40;1.00;;;;;;5081100;28;20224;-82
2021/04/10 00:50:18;;;;;;;15.82;10.70;;;9.40;1.00;;;;;;5070658;28;20279;-81
2021/04/10 00:52:45;;;;;;;11.50;10.30;;;9.50;1.00;;;;;;5077467;28;20690;-80
2021/04/10 00:55:13;;;;;;;10.73;9.75;;;9.50;1.00;;;;;;5072288;28;20220;-81
2021/04/10 00:57:40;;;;;;;13.07;11.70;;;9.50;1.00;;;;;;5088316;28;21213;-81
2021/04/10 01:00:08;;;;;;;11.27;9.85;;;9.50;1.00;;;;;;5065747;28;20222;-82
2021/04/10 01:02:40;;;;;;;11.77;10.38;;;9.50;1.00;;;;;;5087053;28;20321;-82
2021/04/10 01:05:13;;;;;;;11.85;9.85;;;9.40;1.00;;;;;;5077786;28;20259;-81
2021/04/10 01:07:40;;;;;;;13.50;11.45;;;9.40;1.00;;;;;;5087228;28;20255;-82
2021/04/10 01:10:07;;;;;;;12.23;11.00;;;9.30;1.00;;;;;;5080788;28;20276;-81
2021/04/10 01:12:48;;;;;;;12.90;11.65;;;9.30;1.00;;;;;;5098672;28;20221;-80
2021/04/10 01:15:32;;;;;;;13.48;11.52;;;9.20;1.00;;;;;;5066966;28;20616;-81
2021/04/10 01:18:06;;;;;;;12.48;11.18;;;9.10;1.00;;;;;;5084185;28;20299;-81
2021/04/10 01:21:06;;;;;;;13.38;11.55;;;9.10;1.00;;;;;;5076690;28;20231;-82
2021/04/10 01:24:16;;;;;;;13.40;12.10;;;9.10;1.00;;;;;;5089573;28;20224;-81
2021/04/10 01:27:10;;;;;;;13.68;11.85;;;9.00;1.00;;;;;;5082282;28;20212;-81
2021/04/10 01:29:42;;;;;;;15.60;14.07;;;9.00;1.00;;;;;;5089932;28;20224;-79
2021/04/10 01:32:13;;;;;;;13.18;11.88;;;8.90;1.00;;;;;;5093838;28;20223;-81
2021/04/10 01:34:43;;;;;;;14.73;12.27;;;8.80;1.00;;;;;;5079981;28;20233;-82
2021/04/10 01:37:13;;;;;;;12.13;10.93;;;8.70;1.00;;;;;;5065981;28;20256;-81
2021/04/10 01:39:44;;;;;;;11.88;10.63;;;8.60;1.00;;;;;;5082757;28;20236;-81
2021/04/10 01:42:13;;;;;;;14.13;12.75;;;8.60;1.00;;;;;;5065973;28;20797;-81
2021/04/10 01:44:42;;;;;;;12.68;10.75;;;8.50;1.00;;;;;;5097317;27;20803;-80
2021/04/10 01:47:12;;;;;;;12.27;11.10;;;8.50;1.00;;;;;;5072063;28;20228;-82
2021/04/10 01:49:40;;;;;;;12.13;10.70;;;8.40;1.00;;;;;;5083857;28;20240;-81
2021/04/10 01:52:10;;;;;;;11.65;10.45;;;8.40;1.00;;;;;;5073230;28;20216;-80
2021/04/10 01:54:37;;;;;;;13.30;10.23;;;8.30;1.00;;;;;;5082702;28;20714;-81
2021/04/10 01:57:09;;;;;;;12.18;10.68;;;8.30;1.00;;;;;;5077551;28;20507;-81
2021/04/10 01:59:36;;;;;;;11.85;10.85;;;8.20;1.00;;;;;;5085156;28;20221;-81
2021/04/10 02:02:04;;;;;;;11.32;10.13;;;8.20;1.00;;;;;;5082356;28;20228;-80
2021/04/10 02:04:34;;;;;;;11.00;9.82;;;8.20;1.00;;;;;;5083039;28;20252;-81
2021/04/10 02:07:06;;;;;;;11.05;9.98;;;8.10;1.00;;;;;;5073767;28;20224;-81
2021/04/10 02:09:33;;;;;;;15.40;11.75;;;8.00;1.00;;;;;;5081943;28;20290;-81
2021/04/10 02:12:00;;;;;;;11.90;10.40;;;8.10;1.00;;;;;;5070190;28;20216;-82
2021/04/10 02:14:31;;;;;;;11.15;9.25;;;8.10;1.00;;;;;;5084785;28;20224;-82
2021/04/10 02:16:58;;;;;;;10.65;9.55;;;8.10;1.00;;;;;;5070367;28;20244;-82
2021/04/10 02:19:25;;;;;;;13.25;11.77;;;8.10;1.00;;;;;;5084876;28;20264;-83
2021/04/10 02:21:51;;;;;;;10.45;9.32;;;8.10;1.00;;;;;;5070331;28;20250;-83
2021/04/10 02:24:17;;;;;;;9.25;8.45;;;8.10;1.00;;;;;;5084437;28;20216;-81
2021/04/10 02:26:45;;;;;;;9.80;8.80;;;8.10;1.00;;;;;;5085048;28;20315;-81
2021/04/10 02:29:12;;;;;;;12.65;10.95;;;8.20;1.00;;;;;;5083921;27;20247;-81
2021/04/10 02:31:44;;;;;;;13.43;12.13;;;8.20;1.00;;;;;;5083966;28;21401;-81
2021/04/10 02:34:28;;;;;;;10.23;9.20;;;8.20;1.00;;;;;;5062296;28;20224;-81
2021/04/10 02:37:01;;;;;;;11.60;9.63;;;8.20;1.00;;;;;;5083301;28;20713;-81
2021/04/10 02:39:30;;;;;;;15.30;12.90;;;8.30;1.00;;;;;;5068191;28;20331;-80
2021/04/10 02:42:01;;;;;;;12.63;9.98;;;8.30;1.00;;;;;;5082794;28;20270;-81
2021/04/10 02:44:34;;;;;;;14.30;10.57;;;8.30;1.00;;;;;;5072305;28;20240;-80
2021/04/10 02:47:11;;;;;;;13.60;11.23;;;8.30;1.00;;;;;;5087003;28;20224;-81
2021/04/10 02:49:42;;;;;;;16.00;13.90;;;8.30;1.00;;;;;;5087941;28;20277;-82
2021/04/10 02:52:13;;;;;;;22.42;17.45;;;8.30;1.00;;;;;;5092297;28;20228;-81
2021/04/10 02:54:49;;;;;;;19.92;15.73;;;8.30;1.00;;;;;;5075562;28;20223;-81
2021/04/10 02:57:18;;;;;;;21.48;14.98;;;8.30;1.00;;;;;;5106780;27;20227;-82
2021/04/10 02:59:48;;;;;;;13.48;10.77;;;8.30;1.00;;;;;;5076705;28;20209;-79
2021/04/10 03:02:21;;;;;;;11.95;9.77;;;8.20;1.00;;;;;;5087634;28;20223;-81
2021/04/10 03:04:49;;;;;;;11.50;10.40;;;8.20;1.00;;;;;;5077435;28;20971;-80
2021/04/10 03:07:18;;;;;;;15.55;11.50;;;8.20;1.00;;;;;;5090149;28;20310;-80
2021/04/10 03:09:46;;;;;;;11.25;9.75;;;8.20;1.00;;;;;;5074115;28;21443;-77
2021/04/10 03:12:15;;;;;;;12.68;9.70;;;8.20;1.00;;;;;;5089855;28;20238;-81
2021/04/10 03:14:44;;;;;;;11.00;10.00;;;8.20;1.00;;;;;;5070678;28;20908;-77
2021/04/10 03:17:15;;;;;;;9.77;8.25;;;8.20;1.00;;;;;;5088836;28;21006;-77
2021/04/10 03:19:42;;;;;;;10.75;8.23;;;8.20;1.00;;;;;;5065507;28;20774;-79
2021/04/10 03:22:09;;;;;;;10.40;8.80;;;8.20;1.00;;;;;;5089406;28;20232;-77
2021/04/10 03:24:37;;;;;;;9.50;8.27;;;8.20;1.00;;;;;;5066887;28;20274;-78
2021/04/10 03:27:05;;;;;;;12.32;8.15;;;8.20;1.00;;;;;;5083981;28;20240;-77
2021/04/10 03:29:32;;;;;;;12.70;8.95;;;8.20;1.00;;;;;;5070574;28;20235;-79
2021/04/10 03:31:59;;;;;;;11.27;8.63;;;8.20;1.00;;;;;;5077068;28;20220;-79
2021/04/10 03:34:30;;;;;;;9.95;8.48;;;8.20;1.00;;;;;;5081085;28;20236;-78
2021/04/10 03:37:01;;;;;;;11.80;8.40;;;8.10;1.00;;;;;;5082740;28;20220;-77
2021/04/10 03:39:30;;;;;;;8.77;7.70;;;8.10;1.00;;;;;;5091571;28;20220;-76
2021/04/10 03:41:58;;;;;;;9.35;8.40;;;8.10;1.00;;;;;;5074562;28;20288;-77
2021/04/10 03:44:25;;;;;;;9.95;8.95;;;8.00;1.00;;;;;;5084767;28;20235;-77
2021/04/10 03:46:51;;;;;;;12.40;9.00;;;8.00;1.00;;;;;;5069464;28;20236;-77
2021/04/10 03:49:17;;;;;;;9.77;8.85;;;8.00;1.00;;;;;;5086376;28;21172;-79
2021/04/10 03:51:43;;;;;;;9.95;8.98;;;8.10;1.00;;;;;;5069810;28;20224;-78
2021/04/10 03:54:10;;;;;;;10.55;9.23;;;8.00;1.00;;;;;;5086636;28;20826;-79
2021/04/10 03:56:36;;;;;;;10.82;8.98;;;8.00;1.00;;;;;;5069100;28;20708;-78
2021/04/10 03:59:03;;;;;;;8.80;8.00;;;7.90;1.00;;;;;;5085289;28;20224;-78
2021/04/10 04:01:29;;;;;;;10.15;9.15;;;7.90;1.00;;;;;;5072138;28;20220;-79
2021/04/10 04:03:56;;;;;;;10.55;9.10;;;7.80;1.00;;;;;;5085779;28;20233;-80
2021/04/10 04:06:22;;;;;;;9.52;8.07;;;7.80;1.00;;;;;;5065487;28;20233;-77
2021/04/10 04:08:48;;;;;;;13.20;9.30;;;7.70;1.00;;;;;;5087118;28;20235;-78
2021/04/10 04:11:15;;;;;;;9.75;8.60;;;7.70;1.00;;;;;;5073247;28;20240;-78
2021/04/10 04:13:41;;;;;;;12.10;9.57;;;7.60;1.00;;;;;;5099184;27;20331;-78
2021/04/10 04:16:12;;;;;;;9.75;8.88;;;7.60;1.00;;;;;;5089603;27;20306;-76
2021/04/10 04:18:39;;;;;;;10.63;9.63;;;7.60;1.00;;;;;;5104563;27;20231;-76
2021/04/10 04:21:08;;;;;;;11.05;9.85;;;7.60;1.00;;;;;;5102881;27;20231;-77
2021/04/10 04:23:34;;;;;;;14.70;11.95;;;7.50;1.00;;;;;;5091698;27;20263;-76
2021/04/10 04:26:00;;;;;;;12.20;11.00;;;7.50;1.00;;;;;;5102168;27;20208;-77
2021/04/10 04:28:26;;;;;;;15.35;10.38;;;7.40;1.00;;;;;;5088320;27;20222;-77
2021/04/10 04:30:53;;;;;;;11.25;10.15;;;7.40;1.00;;;;;;5100696;27;20307;-77
2021/04/10 04:33:20;;;;;;;12.98;10.55;;;7.30;1.00;;;;;;5087994;27;20243;-77
2021/04/10 04:35:46;;;;;;;11.52;9.98;;;7.30;1.00;;;;;;5099323;27;20209;-77
2021/04/10 04:38:13;;;;;;;11.95;10.82;;;7.20;1.00;;;;;;5089734;27;20220;-77
2021/04/10 04:40:39;;;;;;;11.70;10.55;;;7.20;1.00;;;;;;5097915;27;20285;-78
2021/04/10 04:43:06;;;;;;;15.75;10.88;;;7.10;1.00;;;;;;5085451;27;20323;-79
2021/04/10 04:45:32;;;;;;;11.50;10.40;;;7.10;1.00;;;;;;5100594;27;23568;-75
2021/04/10 04:47:58;;;;;;;11.27;10.07;;;7.10;1.00;;;;;;5084144;27;20212;-77
2021/04/10 04:50:26;;;;;;;16.13;12.38;;;7.10;1.00;;;;;;5097168;27;20497;-77
2021/04/10 04:52:52;;;;;;;14.15;10.68;;;7.10;1.00;;;;;;5084076;28;20287;-76
2021/04/10 04:55:19;;;;;;;13.38;11.27;;;7.00;1.00;;;;;;5093897;27;20790;-77
2021/04/10 04:57:48;;;;;;;13.38;11.98;;;7.00;1.00;;;;;;5087970;28;20231;-81
2021/04/10 05:00:15;;;;;;;11.98;10.65;;;7.00;1.00;;;;;;5085378;28;21230;-79
2021/04/10 05:02:45;;;;;;;13.40;11.95;;;7.00;1.00;;;;;;5086475;28;20227;-78
2021/04/10 05:05:12;;;;;;;13.27;11.80;;;7.00;1.00;;;;;;5075073;28;20223;-77
2021/04/10 05:07:39;;;;;;;12.73;11.43;;;7.00;1.00;;;;;;5087463;28;21229;-79
2021/04/10 05:10:07;;;;;;;13.00;11.60;;;7.00;1.00;;;;;;5068918;28;20236;-79
2021/04/10 05:12:33;;;;;;;15.45;13.85;;;7.00;1.00;;;;;;5086416;28;20332;-76
2021/04/10 05:15:00;;;;;;;13.75;12.38;;;7.00;1.00;;;;;;5064510;28;20254;-78
2021/04/10 05:17:26;;;;;;;13.40;12.10;;;7.00;1.00;;;;;;5080870;28;20216;-79
2021/04/10 05:19:52;;;;;;;13.77;11.07;;;7.00;1.00;;;;;;5059999;28;20295;-78
2021/04/10 05:22:21;;;;;;;13.82;10.77;;;7.00;1.00;;;;;;5080577;28;20216;-79
2021/04/10 05:24:48;;;;;;;15.07;12.40;;;7.00;1.00;;;;;;5066931;28;20239;-77
2021/04/10 05:27:15;;;;;;;13.93;12.30;;;7.00;1.00;;;;;;5079185;28;20570;-79
2021/04/10 05:29:41;;;;;;;15.75;12.00;;;6.90;1.00;;;;;;5064218;28;20837;-78
2021/04/10 05:32:10;;;;;;;13.65;12.10;;;6.90;1.00;;;;;;5086534;28;20231;-78
2021/04/10 05:34:37;;;;;;;15.07;13.48;;;7.00;1.00;;;;;;5067291;28;20224;-81
2021/04/10 05:37:04;;;;;;;15.20;13.75;;;7.00;1.00;;;;;;5081172;28;23593;-78
2021/04/10 05:39:30;;;;;;;18.92;16.58;;;7.00;1.00;;;;;;5065622;28;20700;-78
2021/04/10 05:41:57;;;;;;;13.80;12.00;;;6.90;1.00;;;;;;5081285;28;20225;-78
2021/04/10 05:44:23;;;;;;;14.38;12.02;;;7.00;1.00;;;;;;5085048;28;21205;-79
2021/04/10 05:46:50;;;;;;;13.57;11.63;;;6.90;1.00;;;;;;5078935;27;20311;-77
2021/04/10 05:49:16;;;;;;;13.18;11.77;;;6.90;1.00;;;;;;5084432;28;20243;-79
2021/04/10 05:51:42;;;;;;;16.15;12.70;;;7.00;1.00;;;;;;5069059;28;20398;-79
2021/04/10 05:54:10;;;;;;;15.57;13.23;;;7.10;1.00;;;;;;5081452;28;20256;-77
2021/04/10 05:56:36;;;;;;;15.88;11.73;;;7.10;1.00;;;;;;5068772;28;20270;-78
2021/04/10 05:59:03;;;;;;;15.85;11.88;;;7.20;1.00;;;;;;5083579;28;20306;-78
2021/04/10 06:01:30;;;;;;;15.82;12.57;;;7.20;1.00;;;;;;5064385;28;20311;-78
2021/04/10 06:03:56;;;;;;;12.35;10.68;;;7.20;1.00;;;;;;5083406;28;20224;-75
2021/04/10 06:06:22;;;;;;;13.70;11.45;;;7.20;1.00;;;;;;5072318;28;20228;-77
2021/04/10 06:08:51;;;;;;;13.48;11.43;;;7.20;1.00;;;;;;5088048;28;21201;-77
2021/04/10 06:11:18;;;;;;;14.18;11.82;;;7.10;1.00;;;;;;5061085;28;20346;-80
2021/04/10 06:13:44;;;;;;;14.80;12.18;;;7.10;1.00;;;;;;5081922;28;20216;-81
2021/04/10 06:16:11;;;;;;;12.48;11.27;;;7.20;1.00;;;;;;5064508;28;20734;-77
2021/04/10 06:18:38;;;;;;;13.82;11.18;;;7.20;1.00;;;;;;5081337;28;20268;-79
2021/04/10 06:21:05;;;;;;;12.85;11.48;;;7.20;1.00;;;;;;5065972;28;20213;-76
2021/04/10 06:23:32;;;;;;;19.67;12.45;;;7.20;1.00;;;;;;5080063;28;21080;-79
2021/04/10 06:25:59;;;;;;;12.07;10.88;;;7.20;1.00;;;;;;5086366;28;20420;-78
2021/04/10 06:28:25;;;;;;;12.82;11.52;;;7.20;1.00;;;;;;5076190;28;20591;-80
2021/04/10 06:30:53;;;;;;;9.77;8.77;;;7.20;1.00;;;;;;5088538;28;20236;-81
2021/04/10 06:33:23;;;;;;;9.52;7.30;;;7.20;1.00;;;;;;5078496;28;20232;-81
2021/04/10 06:35:50;;;;;;;9.88;7.35;;;7.10;1.00;;;;;;5094152;28;20782;-83
2021/04/10 06:38:16;;;;;;;9.45;8.00;;;7.10;1.00;;;;;;5076628;28;20299;-81
2021/04/10 06:40:44;;;;;;;7.82;6.90;;;7.00;1.00;;;;;;5084744;28;20286;-81
2021/04/10 06:43:10;;;;;;;8.40;6.82;;;7.00;1.00;;;;;;5075188;28;20288;-81
2021/04/10 06:45:37;;;;;;;8.75;7.85;;;6.90;1.00;;;;;;5093828;28;20289;-82
2021/04/10 06:48:04;;;;;;;11.73;8.95;;;6.90;1.00;;;;;;5082942;28;20244;-81
2021/04/10 06:50:32;;;;;;;10.68;8.90;;;7.00;1.00;;;;;;5093614;28;20242;-82
2021/04/10 06:53:06;;;;;;;11.43;9.32;;;7.00;1.00;;;;;;5078404;28;20253;-81
2021/04/10 06:55:36;;;;;;;16.35;9.38;;;7.00;1.00;;;;;;5090072;28;20282;-79
2021/04/10 06:58:05;;;;;;;10.55;8.80;;;7.00;1.00;;;;;;5075635;28;20427;-81
2021/04/10 07:00:35;;;;;;;9.45;7.53;;;7.00;1.00;;;;;;5090014;28;20703;-82
2021/04/10 07:03:04;;;;;;;14.38;10.00;;;7.10;1.00;;;;;;5072616;28;20326;-81
2021/04/10 07:05:34;;;;;;;9.60;8.13;;;7.10;1.00;;;;;;5099957;27;20223;-83
2021/04/10 07:08:02;;;;;;;12.95;8.95;;;7.10;1.00;;;;;;5074851;28;20317;-82
2021/04/10 07:10:28;;;;;;;10.63;9.10;;;7.10;1.00;;;;;;5100842;27;20248;-82
2021/04/10 07:12:57;;;;;;;10.15;8.88;;;7.10;1.00;;;;;;5087074;28;21064;-83
2021/04/10 07:15:24;;;;;;;10.70;9.45;;;7.20;1.00;;;;;;5087723;28;20323;-80
2021/04/10 07:17:51;;;;;;;12.57;10.15;;;7.20;1.00;;;;;;5091633;28;20319;-80
2021/04/10 07:20:32;;;;;;;9.98;9.05;;;7.30;1.00;;;;;;5073632;28;20232;-78
2021/04/10 07:23:02;;;;;;;11.43;10.05;;;7.30;1.00;;;;;;5092697;28;20220;-81
2021/04/10 07:25:30;;;;;;;12.25;9.90;;;7.40;1.00;;;;;;5079872;28;20232;-82
2021/04/10 07:28:24;;;;;;;14.60;12.85;;;7.40;1.00;;;;;;5094345;28;20930;-80
2021/04/10 07:31:03;;;;;;;14.32;11.20;;;7.50;1.00;;;;;;5088884;28;20280;-81
2021/04/10 07:33:31;;;;;;;13.90;12.23;;;7.60;1.00;;;;;;5091561;28;20226;-82
2021/04/10 07:35:58;;;;;;;14.45;10.55;;;7.60;1.00;;;;;;5084673;28;20223;-81
2021/04/10 07:38:32;;;;;;;16.02;12.25;;;7.70;1.00;;;;;;5092343;28;20232;-81
2021/04/10 07:41:03;;;;;;;11.93;10.52;;;7.70;1.00;;;;;;5076955;28;20216;-81
2021/04/10 07:43:30;;;;;;;14.35;12.23;;;7.80;1.00;;;;;;5100204;28;21488;-81
2021/04/10 07:46:19;;;;;;;13.88;11.43;;;7.80;1.00;;;;;;5094329;28;20212;-81
2021/04/10 07:49:07;;;;;;;13.77;12.00;;;7.80;1.00;;;;;;5098628;28;20224;-82
2021/04/10 07:51:38;;;;;;;13.65;10.88;;;7.80;1.00;;;;;;5082070;28;20219;-81
2021/04/10 07:54:33;;;;;;;11.57;10.40;;;7.90;1.00;;;;;;5094953;28;20220;-80
2021/04/10 07:57:02;;;;;;;10.77;9.77;;;7.90;1.00;;;;;;5108064;27;20239;-83
2021/04/10 07:59:30;;;;;;;11.75;9.95;;;8.00;1.00;;;;;;5098001;28;20243;-83
2021/04/10 08:02:14;;;;;;;11.18;10.15;;;8.00;1.00;;;;;;5085173;28;20268;-80
2021/04/10 08:04:41;;;;;;;13.68;12.15;;;8.00;1.00;;;;;;5103486;28;20214;-81
2021/04/10 08:07:12;;;;;;;15.85;11.30;;;8.00;1.00;;;;;;5088741;28;20271;-82
2021/04/10 08:09:40;;;;;;;12.35;10.52;;;8.00;1.00;;;;;;5100915;28;20226;-81
2021/04/10 08:12:11;;;;;;;13.45;11.13;;;8.00;1.00;;;;;;5092204;28;20250;-81
2021/04/10 08:14:43;;;;;;;12.55;10.82;;;8.10;1.00;;;;;;5099094;28;20229;-83
2021/04/10 08:17:10;;;;;;;14.40;10.95;;;8.10;1.00;;;;;;5077098;28;20216;-83
2021/04/10 08:19:40;;;;;;;13.40;12.02;;;8.10;1.00;;;;;;5096120;28;20597;-83
2021/04/10 08:22:11;;;;;;;12.23;11.02;;;8.20;1.00;;;;;;5080895;28;20276;-82
2021/04/10 08:24:41;;;;;;;14.40;10.98;;;8.20;1.00;;;;;;5102391;28;20237;-81
2021/04/10 08:27:19;;;;;;;13.55;10.77;;;8.30;1.00;;;;;;5091481;28;20279;-82
2021/04/10 08:29:45;;;;;;;14.85;10.93;;;8.40;1.00;;;;;;5104130;28;20212;-80
2021/04/10 08:32:13;;;;;;;13.52;10.55;;;8.40;1.00;;;;;;5093415;28;20235;-83
2021/04/10 08:34:43;;;;;;;12.25;10.95;;;8.50;1.00;;;;;;5102802;28;20232;-80
2021/04/10 08:37:13;;;;;;;17.52;14.15;;;8.60;1.00;;;;;;5096356;28;20240;-83
2021/04/10 08:39:48;;;;;;;14.40;11.65;;;8.70;1.00;;;;;;5097313;27;21283;-82
2021/04/10 08:42:22;;;;;;;13.63;11.57;;;8.80;1.00;;;;;;5086097;28;20490;-82
2021/04/10 08:44:52;;;;;;;12.27;10.98;;;8.90;1.00;;;;;;5094035;28;20215;-83
2021/04/10 08:47:19;;;;;;;14.98;11.90;;;8.90;1.00;;;;;;5082254;28;20281;-81
2021/04/10 08:49:48;;;;;;;12.40;11.20;;;8.80;1.00;;;;;;5086752;28;20260;-83
2021/04/10 08:52:21;;;;;;;14.35;10.68;;;8.90;1.00;;;;;;5076086;28;20260;-82
2021/04/10 08:54:52;;;;;;;13.95;10.63;;;8.90;1.00;;;;;;5089944;28;20904;-80
2021/04/10 08:57:18;;;;;;;12.90;10.85;;;9.00;1.00;;;;;;5085890;28;20241;-81
2021/04/10 08:59:46;;;;;;;12.35;11.15;;;9.00;1.00;;;;;;5084816;28;20225;-82
2021/04/10 09:02:21;;;;;;;13.40;10.30;;;9.00;1.00;;;;;;5081865;28;20287;-82
2021/04/10 09:05:09;;;;;;;16.90;10.75;;;9.10;1.00;;;;;;5098811;27;21163;-82
2021/04/10 09:08:13;;;;;;;11.57;10.48;;;9.10;1.00;;;;;;5074904;28;20221;-82
2021/04/10 09:10:54;;;;;;;15.43;12.63;;;9.30;1.00;;;;;;5088848;28;20233;-81
2021/04/10 09:13:41;;;;;;;13.27;9.95;;;9.40;1.00;;;;;;5071758;28;21198;-83
2021/04/10 09:16:28;;;;;;;11.32;10.23;;;9.50;1.00;;;;;;5088315;28;20294;-82
2021/04/10 09:19:03;;;;;;;11.90;10.70;;;9.60;1.00;;;;;;5076567;28;20230;-82
2021/04/10 09:21:36;;;;;;;12.23;10.85;;;9.70;1.00;;;;;;5090170;28;20252;-83
2021/04/10 09:24:26;;;;;;;11.98;10.20;;;9.90;1.00;;;;;;5084366;28;20241;-82
2021/04/10 09:26:55;;;;;;;11.25;9.05;;;10.10;1.00;;;;;;5080770;28;20232;-81
2021/04/10 09:29:22;;;;;;;11.93;9.50;;;10.40;1.00;;;;;;5066026;28;21112;-80
2021/04/10 09:31:54;;;;;;;12.57;10.80;;;10.70;1.00;;;;;;5084020;28;20232;-78
2021/04/10 09:34:50;;;;;;;9.37;8.10;;;11.00;1.00;;;;;;5060109;28;20487;-80
2021/04/10 09:37:44;;;;;;;8.67;7.30;;;11.40;1.00;;;;;;5080855;28;24696;-81
2021/04/10 09:40:17;;;;;;;8.93;8.00;;;11.60;1.00;;;;;;5069753;28;20429;-79
2021/04/10 09:42:49;;;;;;;8.70;7.40;;;11.90;1.00;;;;;;5085039;28;20449;-80
2021/04/10 09:45:18;;;;;;;10.13;6.33;;;12.00;1.00;;;;;;5067978;28;20557;-81
2021/04/10 09:48:14;;;;;;;7.97;6.27;;;12.30;1.00;;;;;;5079825;28;21939;-80
2021/04/10 09:50:46;;;;;;;6.07;5.33;;;12.50;1.00;;;;;;5071343;28;20585;-81
2021/04/10 09:53:15;;;;;;;8.80;5.70;;;12.90;1.00;;;;;;5080615;28;20443;-80
2021/04/10 09:55:43;;;;;;;6.30;5.70;;;13.20;1.00;;;;;;5069566;28;20806;-80
2021/04/10 09:58:14;;;;;;;7.40;5.10;;;13.40;1.00;;;;;;5082586;28;20466;-81
2021/04/10 10:00:42;;;;;;;9.07;5.00;;;13.50;1.00;;;;;;5065092;28;20446;-80
2021/04/10 10:03:10;;;;;;;13.90;7.10;;;13.50;1.00;;;;;;5081439;28;20438;-81
2021/04/10 10:05:39;;;;;;;7.47;6.00;;;13.30;1.00;;;;;;5070441;28;21303;-80
2021/04/10 10:08:08;;;;;;;7.27;5.57;;;13.30;1.00;;;;;;5079176;28;20486;-79
2021/04/10 10:10:38;;;;;;;8.60;5.37;;;13.50;1.00;;;;;;5068547;28;20478;-79
2021/04/10 10:13:08;;;;;;;15.00;5.30;;;13.50;1.00;;;;;;5083172;28;20407;-80
2021/04/10 10:15:35;;;;;;;9.90;6.30;;;13.10;1.00;;;;;;5068165;28;20605;-81
2021/04/10 10:18:14;;;;;;;11.83;6.90;;;12.80;1.00;;;;;;5083888;28;21006;-80
2021/04/10 10:20:54;;;;;;;117.17;76.17;;;12.30;1.00;;;;;;5082923;28;20450;-79
2021/04/10 10:23:21;;;;;;;6.53;4.43;;;12.20;1.00;;;;;;5081758;28;20442;-83
2021/04/10 10:25:47;;;;;;;6.40;4.60;;;12.10;1.00;;;;;;5069471;28;20434;-80
2021/04/10 10:28:17;;;;;;;9.37;5.13;;;12.10;1.00;;;;;;5086911;28;20459;-81
2021/04/10 10:30:53;;;;;;;17.63;8.13;;;12.10;1.00;;;;;;5092386;28;21732;-81
2021/04/10 10:33:23;;;;;;;9.93;6.60;;;12.20;1.00;;;;;;5089879;28;20482;-80
2021/04/10 10:35:51;;;;;;;9.93;6.17;;;12.10;1.00;;;;;;5077342;28;20469;-79
2021/04/10 10:38:21;;;;;;;10.77;6.33;;;12.20;1.00;;;;;;5092572;28;20419;-82
2021/04/10 10:40:49;;;;;;;13.50;7.63;;;12.20;1.00;;;;;;5089292;28;20408;-80
2021/04/10 10:43:17;;;;;;;10.20;6.20;;;12.20;1.00;;;;;;5070264;28;21264;-79
2021/04/10 10:45:46;;;;;;;11.00;6.90;;;12.10;1.00;;;;;;5090637;28;20542;-79
2021/04/10 10:48:25;;;;;;;10.73;6.73;;;12.10;1.00;;;;;;5075831;28;20458;-80
2021/04/10 10:50:54;;;;;;;9.57;6.53;;;12.20;1.00;;;;;;5083283;28;20463;-80
2021/04/10 10:53:22;;;;;;;8.27;6.20;;;12.20;1.00;;;;;;5073379;28;20450;-79
2021/04/10 10:55:56;;;;;;;8.60;6.30;;;12.20;1.00;;;;;;5085029;28;20431;-79
2021/04/10 10:58:24;;;;;;;9.27;6.57;;;12.20;1.00;;;;;;5073172;28;21200;-80
2021/04/10 11:00:51;;;;;;;12.53;10.17;;;12.10;1.00;;;;;;5091434;28;20925;-81
2021/04/10 11:03:21;;;;;;;7.63;6.83;;;12.00;1.00;;;;;;5088853;28;20470;-78
2021/04/10 11:05:48;;;;;;;8.70;6.60;;;12.10;1.00;;;;;;5082956;28;20515;-80
2021/04/10 11:08:17;;;;;;;7.80;5.60;;;12.00;1.00;;;;;;5078454;28;20477;-80
2021/04/10 11:10:46;;;;;;;9.40;6.93;;;12.00;1.00;;;;;;5089564;28;20443;-80
2021/04/10 11:13:19;;;;;;;8.30;6.47;;;11.90;1.00;;;;;;5079274;28;20461;-80
2021/04/10 11:15:47;;;;;;;11.33;6.37;;;12.00;1.00;;;;;;5093037;28;20469;-80
2021/04/10 11:18:31;;;;;;;10.50;6.50;;;12.00;1.00;;;;;;5079575;28;20584;-78
2021/04/10 11:21:19;;;;;;;11.03;6.20;;;12.10;1.00;;;;;;5088296;28;20470;-79
2021/04/10 11:24:08;;;;;;;10.90;6.20;;;12.30;1.00;;;;;;5081901;28;20480;-79
2021/04/10 11:26:40;;;;;;;10.90;8.67;;;12.40;1.00;;;;;;5082742;28;20407;-80
2021/04/10 11:29:25;;;;;;;8.40;6.67;;;12.40;1.00;;;;;;5076817;28;20582;-79
2021/04/10 11:32:07;;;;;;;11.73;6.23;;;12.40;1.00;;;;;;5085559;28;20430;-80
2021/04/10 11:34:36;;;;;;;7.23;6.50;;;12.30;1.00;;;;;;5063237;28;20532;-81
2021/04/10 11:37:04;;;;;;;9.77;6.57;;;12.10;1.00;;;;;;5077083;28;20458;-78
2021/04/10 11:39:47;;;;;;;9.50;6.43;;;12.10;1.00;;;;;;5068691;28;21002;-78
2021/04/10 11:42:22;;;;;;;10.93;7.07;;;12.10;1.00;;;;;;5076045;28;20437;-79
2021/04/10 11:44:55;;;;;;;9.40;7.23;;;12.10;1.00;;;;;;5072144;28;20431;-79
2021/04/10 11:47:23;;;;;;;9.30;6.20;;;11.90;1.00;;;;;;5079481;28;20549;-80
2021/04/10 11:49:51;;;;;;;8.73;6.77;;;12.00;1.00;;;;;;5069570;28;21143;-79
2021/04/10 11:52:18;;;;;;;8.43;6.30;;;12.00;1.00;;;;;;5086065;28;20489;-81
2021/04/10 11:54:44;;;;;;;8.77;6.70;;;12.10;1.00;;;;;;5076705;28;20524;-80
2021/04/10 11:57:32;;;;;;;6.77;6.07;;;12.20;1.00;;;;;;5084167;28;21396;-79
2021/04/10 12:00:12;;;;;;;7.33;6.10;;;12.20;1.00;;;;;;5078346;28;21407;-79
2021/04/10 12:02:40;;;;;;;7.67;6.20;;;12.10;1.00;;;;;;5082420;28;20474;-80
2021/04/10 12:05:21;;;;;;;10.63;6.57;;;12.00;1.00;;;;;;5069672;28;20447;-80
2021/04/10 12:08:10;;;;;;;11.27;6.27;;;12.00;1.00;;;;;;5077973;28;20646;-80
2021/04/10 12:10:39;;;;;;;7.93;6.27;;;11.90;1.00;;;;;;5066420;28;20458;-78
2021/04/10 12:13:08;;;;;;;8.60;5.93;;;11.80;1.00;;;;;;5077383;28;20468;-79
2021/04/10 12:15:36;;;;;;;6.30;5.70;;;11.80;1.00;;;;;;5077705;28;20467;-81
2021/04/10 12:18:04;;;;;;;7.57;5.47;;;11.70;1.00;;;;;;5093124;28;20535;-80
2021/04/10 12:20:34;;;;;;;9.27;5.27;;;11.80;1.00;;;;;;5077019;28;20462;-79
2021/04/10 12:23:01;;;;;;;11.93;5.53;;;11.80;1.00;;;;;;5086997;28;20532;-82
2021/04/10 12:25:28;;;;;;;6.37;5.77;;;11.80;1.00;;;;;;5079835;28;20411;-81
2021/04/10 12:27:54;;;;;;;13.93;7.10;;;11.80;1.00;;;;;;5088461;28;20562;-81
2021/04/10 12:30:21;;;;;;;7.13;6.23;;;11.70;1.00;;;;;;5079614;28;20426;-80
2021/04/10 12:32:48;;;;;;;7.77;5.80;;;11.60;1.00;;;;;;5094794;28;20485;-78
2021/04/10 12:35:15;;;;;;;7.37;6.00;;;11.50;1.00;;;;;;5087420;28;20423;-79
2021/04/10 12:37:42;;;;;;;7.60;5.43;;;11.50;1.00;;;;;;5081861;28;20547;-79
2021/04/10 12:40:10;;;;;;;8.80;5.80;;;11.50;1.00;;;;;;5094078;28;20422;-80
2021/04/10 12:42:40;;;;;;;6.55;5.00;;;11.40;1.00;;;;;;5076629;28;20441;-76
2021/04/10 12:45:08;;;;;;;8.77;5.60;;;11.30;1.00;;;;;;5075016;28;20238;-77
2021/04/10 12:47:35;;;;;;;8.27;5.83;;;11.40;1.00;;;;;;5064403;28;20475;-76
2021/04/10 12:50:03;;;;;;;6.70;5.30;;;11.40;1.00;;;;;;5082916;28;20449;-77
2021/04/10 12:52:29;;;;;;;14.40;12.77;;;11.30;1.00;;;;;;5077598;28;20426;-76
2021/04/10 12:54:59;;;;;;;12.13;4.80;;;11.40;1.00;;;;;;5088615;28;20235;-77
2021/04/10 12:57:26;;;;;;;9.07;6.67;;;11.40;1.00;;;;;;5071848;28;20521;-77
2021/04/10 12:59:53;;;;;;;7.37;5.93;;;11.50;1.00;;;;;;5089795;28;20423;-76
2021/04/10 13:02:19;;;;;;;6.80;5.70;;;11.60;1.00;;;;;;5078500;28;20427;-77
2021/04/10 13:04:48;;;;;;;7.03;6.23;;;11.70;1.00;;;;;;5108853;27;20434;-77
2021/04/10 13:07:15;;;;;;;10.33;7.80;;;11.70;1.00;;;;;;5080928;28;20443;-76